createdAt,value
2018-05-18T00:00:07.679Z,12.94
2018-05-18T00:01:07.642Z,12.94
2018-05-18T00:02:07.654Z,12.88
2018-05-18T00:03:07.704Z,12.94
2018-05-18T00:04:07.683Z,12.88
2018-05-18T00:05:07.694Z,12.88
2018-05-18T00:06:07.829Z,12.88
2018-05-18T00:07:07.703Z,12.88
2018-05-18T00:08:07.691Z,12.81
2018-05-18T00:09:07.848Z,12.81
2018-05-18T00:10:07.677Z,12.81
2018-05-18T00:11:07.665Z,12.81
2018-05-18T00:12:07.728Z,12.88
2018-05-18T00:13:07.681Z,12.81
2018-05-18T00:14:07.697Z,12.81
2018-05-18T00:15:07.633Z,12.81
2018-05-18T00:16:07.646Z,12.75
2018-05-18T00:17:07.696Z,12.75
2018-05-18T00:18:07.647Z,12.69
2018-05-18T00:19:07.662Z,12.63
2018-05-18T00:20:07.677Z,12.63
2018-05-18T00:21:07.692Z,12.63
2018-05-18T00:22:07.674Z,12.63
2018-05-18T00:23:07.714Z,12.56
2018-05-18T00:24:07.647Z,12.56
2018-05-18T00:25:07.661Z,12.56
2018-05-18T00:26:07.676Z,12.56
2018-05-18T00:27:07.655Z,12.56
2018-05-18T00:28:07.689Z,12.5
2018-05-18T00:29:07.646Z,12.56
2018-05-18T00:30:07.678Z,12.56
2018-05-18T00:31:07.692Z,12.5
2018-05-18T00:32:07.693Z,12.5
2018-05-18T00:33:07.715Z,12.5
2018-05-18T00:34:07.677Z,12.44
2018-05-18T00:35:07.657Z,12.37
2018-05-18T00:36:07.660Z,12.37
2018-05-18T00:37:07.701Z,12.37
2018-05-18T00:38:07.697Z,12.31
2018-05-18T00:39:07.696Z,12.31
2018-05-18T00:40:07.661Z,12.25
2018-05-18T00:41:07.682Z,12.25
2018-05-18T00:42:07.686Z,12.25
2018-05-18T00:43:07.665Z,12.19
2018-05-18T00:44:07.711Z,12.19
2018-05-18T00:45:07.681Z,12.13
2018-05-18T00:46:07.848Z,12.13
2018-05-18T00:47:07.720Z,12.06
2018-05-18T00:48:07.713Z,12
2018-05-18T00:49:07.673Z,12.06
2018-05-18T00:50:07.701Z,12
2018-05-18T00:51:07.718Z,12
2018-05-18T00:52:07.723Z,11.94
2018-05-18T00:53:07.696Z,11.94
2018-05-18T00:54:07.694Z,11.88
2018-05-18T00:55:07.726Z,11.88
2018-05-18T00:56:07.661Z,11.88
2018-05-18T00:57:07.697Z,11.88
2018-05-18T00:58:07.685Z,11.88
2018-05-18T00:59:07.675Z,11.88
2018-05-18T01:00:07.774Z,11.81
2018-05-18T01:01:07.828Z,11.88
2018-05-18T01:02:07.711Z,11.81
2018-05-18T01:03:07.844Z,11.88
2018-05-18T01:04:07.724Z,11.81
2018-05-18T01:05:07.715Z,11.81
2018-05-18T01:06:07.706Z,11.88
2018-05-18T01:07:07.689Z,11.75
2018-05-18T01:08:07.724Z,11.81
2018-05-18T01:09:07.714Z,11.75
2018-05-18T01:10:07.760Z,11.75
2018-05-18T01:11:07.685Z,11.75
2018-05-18T01:12:07.705Z,11.75
2018-05-18T01:13:07.709Z,11.75
2018-05-18T01:14:07.675Z,11.69
2018-05-18T01:15:08.247Z,11.69
2018-05-18T01:16:07.753Z,11.69
2018-05-18T01:17:07.682Z,11.69
2018-05-18T01:18:07.770Z,11.69
2018-05-18T01:19:07.845Z,11.63
2018-05-18T01:20:07.724Z,11.69
2018-05-18T01:21:07.687Z,11.63
2018-05-18T01:22:07.803Z,11.69
2018-05-18T01:23:07.729Z,11.63
2018-05-18T01:24:07.717Z,11.56
2018-05-18T01:25:07.726Z,11.63
2018-05-18T01:26:07.769Z,11.63
2018-05-18T01:27:07.741Z,11.63
2018-05-18T01:28:07.741Z,11.56
2018-05-18T01:29:07.762Z,11.56
2018-05-18T01:30:07.703Z,11.56
2018-05-18T01:31:07.710Z,11.56
2018-05-18T01:32:07.723Z,11.56
2018-05-18T01:33:08.056Z,11.5
2018-05-18T01:34:07.731Z,11.5
2018-05-18T01:35:07.741Z,11.5
2018-05-18T01:36:07.731Z,11.44
2018-05-18T01:37:07.705Z,11.44
2018-05-18T01:38:07.719Z,11.38
2018-05-18T01:39:07.703Z,11.38
2018-05-18T01:40:07.700Z,11.38
2018-05-18T01:41:07.853Z,11.38
2018-05-18T01:42:07.684Z,11.31
2018-05-18T01:43:07.734Z,11.31
2018-05-18T01:44:07.710Z,11.31
2018-05-18T01:45:07.677Z,11.25
2018-05-18T01:46:07.682Z,11.25
2018-05-18T01:47:07.720Z,11.25
2018-05-18T01:48:07.729Z,11.25
2018-05-18T01:49:07.721Z,11.25
2018-05-18T01:50:07.730Z,11.19
2018-05-18T01:51:08.083Z,11.25
2018-05-18T01:52:07.698Z,11.12
2018-05-18T01:53:07.719Z,11.19
2018-05-18T01:54:07.740Z,11.12
2018-05-18T01:55:07.811Z,11
2018-05-18T01:56:07.739Z,11
2018-05-18T01:57:07.729Z,11
2018-05-18T01:58:07.732Z,11
2018-05-18T01:59:07.716Z,11
2018-05-18T02:00:07.718Z,11
2018-05-18T02:01:08.037Z,11
2018-05-18T02:02:07.681Z,10.94
2018-05-18T02:03:07.669Z,10.94
2018-05-18T02:04:07.701Z,10.94
2018-05-18T02:05:07.837Z,10.94
2018-05-18T02:06:07.706Z,10.94
2018-05-18T02:07:07.706Z,10.88
2018-05-18T02:08:07.723Z,10.88
2018-05-18T02:09:07.698Z,10.88
2018-05-18T02:10:07.695Z,10.88
2018-05-18T02:11:07.734Z,10.81
2018-05-18T02:12:07.794Z,10.88
2018-05-18T02:13:07.747Z,10.81
2018-05-18T02:14:07.763Z,10.81
2018-05-18T02:15:07.704Z,10.81
2018-05-18T02:16:07.694Z,10.81
2018-05-18T02:17:07.716Z,10.81
2018-05-18T02:18:07.776Z,10.81
2018-05-18T02:19:07.756Z,10.75
2018-05-18T02:20:07.687Z,10.75
2018-05-18T02:21:07.704Z,10.75
2018-05-18T02:22:07.855Z,10.75
2018-05-18T02:23:07.895Z,10.75
2018-05-18T02:24:07.712Z,10.75
2018-05-18T02:25:07.860Z,10.75
2018-05-18T02:26:07.715Z,10.81
2018-05-18T02:27:07.697Z,10.81
2018-05-18T02:28:07.715Z,10.75
2018-05-18T02:29:07.735Z,10.81
2018-05-18T02:30:07.690Z,10.75
2018-05-18T02:31:07.699Z,10.81
2018-05-18T02:32:07.728Z,10.75
2018-05-18T02:33:07.711Z,10.75
2018-05-18T02:34:07.738Z,10.75
2018-05-18T02:35:07.708Z,10.75
2018-05-18T02:36:07.733Z,10.75
2018-05-18T02:37:07.706Z,10.75
2018-05-18T02:38:07.696Z,10.75
2018-05-18T02:39:07.819Z,10.75
2018-05-18T02:40:07.744Z,10.69
2018-05-18T02:41:07.733Z,10.75
2018-05-18T02:42:07.845Z,10.69
2018-05-18T02:43:07.709Z,10.75
2018-05-18T02:44:07.713Z,10.69
2018-05-18T02:45:07.712Z,10.69
2018-05-18T02:46:07.752Z,10.69
2018-05-18T02:47:07.834Z,10.69
2018-05-18T02:48:07.905Z,10.69
2018-05-18T02:49:07.837Z,10.75
2018-05-18T02:50:07.732Z,10.75
2018-05-18T02:51:07.733Z,10.69
2018-05-18T02:52:07.723Z,10.69
2018-05-18T02:53:07.708Z,10.69
2018-05-18T02:54:07.717Z,10.69
2018-05-18T02:55:07.732Z,10.75
2018-05-18T02:56:07.904Z,10.75
2018-05-18T02:57:07.900Z,10.75
2018-05-18T02:58:07.739Z,10.69
2018-05-18T02:59:07.819Z,10.69
2018-05-18T03:00:07.753Z,10.69
2018-05-18T03:01:07.715Z,10.69
2018-05-18T03:02:07.750Z,10.69
2018-05-18T03:03:07.773Z,10.69
2018-05-18T03:04:07.728Z,10.75
2018-05-18T03:05:07.894Z,10.69
2018-05-18T03:06:07.843Z,10.69
2018-05-18T03:07:07.800Z,10.69
2018-05-18T03:08:07.804Z,10.69
2018-05-18T03:09:07.769Z,10.69
2018-05-18T03:10:07.774Z,10.69
2018-05-18T03:11:07.852Z,10.69
2018-05-18T03:12:07.787Z,10.69
2018-05-18T03:13:07.909Z,10.69
2018-05-18T03:14:07.764Z,10.75
2018-05-18T03:15:07.857Z,10.69
2018-05-18T03:16:07.820Z,10.69
2018-05-18T03:17:07.907Z,10.69
2018-05-18T03:18:07.877Z,10.69
2018-05-18T03:19:07.757Z,10.63
2018-05-18T03:20:07.814Z,10.56
2018-05-18T03:21:08.879Z,10.63
2018-05-18T03:22:07.731Z,10.56
2018-05-18T03:23:07.784Z,10.56
2018-05-18T03:24:07.737Z,10.56
2018-05-18T03:25:07.809Z,10.5
2018-05-18T03:26:07.766Z,10.5
2018-05-18T03:27:07.766Z,10.5
2018-05-18T03:28:07.854Z,10.5
2018-05-18T03:29:07.734Z,10.44
2018-05-18T03:30:07.774Z,10.5
2018-05-18T03:31:07.820Z,10.44
2018-05-18T03:32:07.752Z,10.5
2018-05-18T03:33:07.743Z,10.5
2018-05-18T03:34:07.751Z,10.5
2018-05-18T03:35:07.768Z,10.5
2018-05-18T03:36:07.756Z,10.5
2018-05-18T03:37:07.722Z,10.5
2018-05-18T03:38:07.750Z,10.5
2018-05-18T03:39:07.730Z,10.5
2018-05-18T03:40:07.756Z,10.5
2018-05-18T03:41:07.765Z,10.44
2018-05-18T03:42:07.737Z,10.44
2018-05-18T03:43:07.745Z,10.44
2018-05-18T03:44:07.796Z,10.44
2018-05-18T03:45:07.762Z,10.5
2018-05-18T03:46:07.724Z,10.5
2018-05-18T03:47:07.747Z,10.5
2018-05-18T03:48:07.728Z,10.5
2018-05-18T03:49:07.750Z,10.44
2018-05-18T03:50:07.733Z,10.5
2018-05-18T03:51:07.733Z,10.44
2018-05-18T03:52:07.723Z,10.44
2018-05-18T03:53:07.741Z,10.44
2018-05-18T03:54:07.739Z,10.44
2018-05-18T03:55:07.738Z,10.44
2018-05-18T03:56:07.836Z,10.44
2018-05-18T03:57:07.741Z,10.44
2018-05-18T03:58:07.769Z,10.44
2018-05-18T03:59:07.775Z,10.44
2018-05-18T04:00:07.811Z,10.44
2018-05-18T04:01:07.762Z,10.44
2018-05-18T04:02:07.757Z,10.5
2018-05-18T04:03:07.726Z,10.5
2018-05-18T04:04:07.738Z,10.5
2018-05-18T04:05:07.891Z,10.44
2018-05-18T04:06:07.775Z,10.5
2018-05-18T04:07:07.780Z,10.5
2018-05-18T04:08:07.760Z,10.44
2018-05-18T04:09:07.860Z,10.5
2018-05-18T04:10:07.808Z,10.5
2018-05-18T04:11:07.762Z,10.56
2018-05-18T04:12:07.826Z,10.5
2018-05-18T04:13:07.766Z,10.5
2018-05-18T04:14:07.747Z,10.5
2018-05-18T04:15:07.894Z,10.44
2018-05-18T04:16:07.793Z,10.44
2018-05-18T04:17:08.074Z,10.44
2018-05-18T04:18:07.749Z,10.44
2018-05-18T04:19:07.771Z,10.38
2018-05-18T04:20:07.770Z,10.44
2018-05-18T04:21:07.733Z,10.38
2018-05-18T04:22:07.772Z,10.38
2018-05-18T04:23:07.768Z,10.38
2018-05-18T04:24:07.763Z,10.38
2018-05-18T04:25:07.829Z,10.38
2018-05-18T04:26:07.786Z,10.38
2018-05-18T04:27:07.752Z,10.38
2018-05-18T04:28:07.765Z,10.31
2018-05-18T04:29:07.771Z,10.38
2018-05-18T04:30:08.441Z,10.25
2018-05-18T04:31:07.777Z,10.31
2018-05-18T04:32:07.899Z,10.31
2018-05-18T04:33:07.780Z,10.31
2018-05-18T04:34:07.749Z,10.31
2018-05-18T04:35:07.746Z,10.31
2018-05-18T04:36:07.907Z,10.38
2018-05-18T04:37:07.758Z,10.38
2018-05-18T04:38:07.992Z,10.38
2018-05-18T04:39:07.753Z,10.44
2018-05-18T04:40:07.772Z,10.44
2018-05-18T04:41:07.772Z,10.5
2018-05-18T04:42:07.793Z,10.5
2018-05-18T04:43:08.290Z,10.5
2018-05-18T04:44:07.841Z,10.56
2018-05-18T04:45:07.757Z,10.5
2018-05-18T04:46:07.875Z,10.56
2018-05-18T04:47:07.876Z,10.56
2018-05-18T04:48:08.032Z,10.63
2018-05-18T04:49:07.796Z,10.56
2018-05-18T04:50:07.762Z,10.63
2018-05-18T04:51:07.748Z,10.63
2018-05-18T04:52:07.818Z,10.63
2018-05-18T04:53:07.818Z,10.69
2018-05-18T04:54:07.781Z,10.69
2018-05-18T04:55:07.806Z,10.69
2018-05-18T04:56:07.823Z,10.75
2018-05-18T04:57:07.764Z,10.69
2018-05-18T04:58:07.890Z,10.75
2018-05-18T04:59:08.038Z,10.75
2018-05-18T05:00:07.757Z,10.81
2018-05-18T05:01:07.785Z,10.81
2018-05-18T05:02:07.777Z,10.75
2018-05-18T05:03:07.793Z,10.81
2018-05-18T05:04:07.792Z,10.75
2018-05-18T05:05:07.781Z,10.81
2018-05-18T05:06:07.756Z,10.69
2018-05-18T05:07:07.930Z,10.75
2018-05-18T05:08:07.760Z,10.75
2018-05-18T05:09:07.781Z,10.75
2018-05-18T05:10:07.756Z,10.75
2018-05-18T05:11:07.802Z,10.81
2018-05-18T05:12:07.773Z,10.81
2018-05-18T05:13:07.772Z,10.75
2018-05-18T05:14:07.789Z,10.81
2018-05-18T05:15:07.799Z,10.75
2018-05-18T05:16:07.814Z,10.81
2018-05-18T05:17:07.899Z,10.81
2018-05-18T05:18:07.905Z,10.88
2018-05-18T05:19:07.804Z,10.81
2018-05-18T05:20:07.903Z,10.81
2018-05-18T05:21:07.761Z,10.81
2018-05-18T05:22:08.216Z,10.75
2018-05-18T05:23:07.821Z,10.75
2018-05-18T05:24:07.781Z,10.75
2018-05-18T05:25:08.678Z,10.69
2018-05-18T05:26:07.769Z,10.69
2018-05-18T05:27:08.136Z,10.69
2018-05-18T05:28:07.882Z,10.69
2018-05-18T05:29:07.773Z,10.75
2018-05-18T05:30:07.792Z,10.69
2018-05-18T05:31:07.796Z,10.69
2018-05-18T05:32:07.797Z,10.63
2018-05-18T05:33:07.790Z,10.56
2018-05-18T05:34:07.819Z,10.63
2018-05-18T05:35:07.796Z,10.69
2018-05-18T05:36:07.823Z,10.75
2018-05-18T05:37:07.779Z,10.75
2018-05-18T05:38:07.916Z,10.69
2018-05-18T05:39:07.821Z,10.63
2018-05-18T05:40:08.033Z,10.69
2018-05-18T05:41:07.844Z,10.69
2018-05-18T05:42:07.799Z,10.75
2018-05-18T05:43:07.847Z,10.81
2018-05-18T05:44:08.334Z,10.81
2018-05-18T05:45:07.803Z,10.88
2018-05-18T05:46:07.816Z,10.94
2018-05-18T05:47:07.809Z,11
2018-05-18T05:48:07.784Z,11
2018-05-18T05:49:07.856Z,11.06
2018-05-18T05:50:07.792Z,11.06
2018-05-18T05:51:07.835Z,11.06
2018-05-18T05:52:07.798Z,11.12
2018-05-18T05:53:07.842Z,11.12
2018-05-18T05:54:07.832Z,11.19
2018-05-18T05:55:07.780Z,11.25
2018-05-18T05:56:07.826Z,11.19
2018-05-18T05:57:07.793Z,11.25
2018-05-18T05:58:07.814Z,11.25
2018-05-18T05:59:07.898Z,11.25
2018-05-18T06:00:07.784Z,11.25
2018-05-18T06:01:07.840Z,11.25
2018-05-18T06:02:07.795Z,11.25
2018-05-18T06:03:07.808Z,11.31
2018-05-18T06:04:07.819Z,11.31
2018-05-18T06:05:07.794Z,11.31
2018-05-18T06:06:07.824Z,11.38
2018-05-18T06:07:07.799Z,11.44
2018-05-18T06:08:07.802Z,11.44
2018-05-18T06:09:07.818Z,11.5
2018-05-18T06:10:07.808Z,11.5
2018-05-18T06:11:07.793Z,11.56
2018-05-18T06:12:08.170Z,11.63
2018-05-18T06:13:07.839Z,11.63
2018-05-18T06:14:07.831Z,11.69
2018-05-18T06:15:07.859Z,11.69
2018-05-18T06:16:07.826Z,11.69
2018-05-18T06:17:07.831Z,11.69
2018-05-18T06:18:07.879Z,11.75
2018-05-18T06:19:07.833Z,11.75
2018-05-18T06:20:07.841Z,11.69
2018-05-18T06:21:07.829Z,11.63
2018-05-18T06:22:07.827Z,11.63
2018-05-18T06:23:07.791Z,11.69
2018-05-18T06:24:07.809Z,11.69
2018-05-18T06:25:07.802Z,11.75
2018-05-18T06:26:07.866Z,11.75
2018-05-18T06:27:07.903Z,11.81
2018-05-18T06:28:07.824Z,11.81
2018-05-18T06:29:07.842Z,11.88
2018-05-18T06:30:07.789Z,11.88
2018-05-18T06:31:07.834Z,11.88
2018-05-18T06:32:07.807Z,11.94
2018-05-18T06:33:07.803Z,12
2018-05-18T06:34:07.796Z,12
2018-05-18T06:35:09.249Z,12.06
2018-05-18T06:36:07.812Z,12
2018-05-18T06:37:07.818Z,12.06
2018-05-18T06:38:07.872Z,12.13
2018-05-18T06:39:07.883Z,12.06
2018-05-18T06:40:07.920Z,12.13
2018-05-18T06:41:08.223Z,12.13
2018-05-18T06:42:07.809Z,12.19
2018-05-18T06:43:07.798Z,12.19
2018-05-18T06:44:07.824Z,12.13
2018-05-18T06:45:07.910Z,12.19
2018-05-18T06:46:07.800Z,12.19
2018-05-18T06:47:07.824Z,12.19
2018-05-18T06:48:07.878Z,12.19
2018-05-18T06:49:07.840Z,12.25
2018-05-18T06:50:07.868Z,12.31
2018-05-18T06:51:07.849Z,12.31
2018-05-18T06:52:07.828Z,12.31
2018-05-18T06:53:07.995Z,12.31
2018-05-18T06:54:07.923Z,12.31
2018-05-18T06:55:08.077Z,12.37
2018-05-18T06:56:07.841Z,12.37
2018-05-18T06:57:07.837Z,12.44
2018-05-18T06:58:07.797Z,12.37
2018-05-18T06:59:07.964Z,12.44
2018-05-18T07:00:07.813Z,12.5
2018-05-18T07:01:07.835Z,12.5
2018-05-18T07:02:07.820Z,12.56
2018-05-18T07:03:07.821Z,12.63
2018-05-18T07:04:08.475Z,12.69
2018-05-18T07:05:07.818Z,12.69
2018-05-18T07:06:07.827Z,12.69
2018-05-18T07:07:07.821Z,12.75
2018-05-18T07:08:07.812Z,12.69
2018-05-18T07:09:07.841Z,12.81
2018-05-18T07:10:07.823Z,12.81
2018-05-18T07:11:07.838Z,12.88
2018-05-18T07:12:07.827Z,12.94
2018-05-18T07:13:07.860Z,12.94
2018-05-18T07:14:07.957Z,13
2018-05-18T07:15:08.084Z,13
2018-05-18T07:16:07.841Z,13.06
2018-05-18T07:17:07.943Z,13.06
2018-05-18T07:18:07.831Z,13
2018-05-18T07:19:07.852Z,13.06
2018-05-18T07:20:07.835Z,13.13
2018-05-18T07:21:07.880Z,13.19
2018-05-18T07:22:07.809Z,13.19
2018-05-18T07:23:08.934Z,13.19
2018-05-18T07:24:07.852Z,13.25
2018-05-18T07:25:07.832Z,13.19
2018-05-18T07:26:07.985Z,13.19
2018-05-18T07:27:07.891Z,13.25
2018-05-18T07:28:07.871Z,13.31
2018-05-18T07:29:07.954Z,13.38
2018-05-18T07:30:09.026Z,13.44
2018-05-18T07:31:07.884Z,13.44
2018-05-18T07:32:07.837Z,13.44
2018-05-18T07:33:07.854Z,13.44
2018-05-18T07:34:08.005Z,13.44
2018-05-18T07:35:07.847Z,13.5
2018-05-18T07:36:08.475Z,13.5
2018-05-18T07:37:07.967Z,13.5
2018-05-18T07:38:07.923Z,13.5
2018-05-18T07:39:07.867Z,13.56
2018-05-18T07:40:07.983Z,13.56
2018-05-18T07:41:07.863Z,13.62
2018-05-18T07:42:07.839Z,13.56
2018-05-18T07:43:07.868Z,13.62
2018-05-18T07:44:07.841Z,13.56
2018-05-18T07:45:07.972Z,13.62
2018-05-18T07:46:07.931Z,13.69
2018-05-18T07:47:07.943Z,13.62
2018-05-18T07:48:07.941Z,13.75
2018-05-18T07:49:07.829Z,13.69
2018-05-18T07:50:08.479Z,13.75
2018-05-18T07:51:07.869Z,13.81
2018-05-18T07:52:07.836Z,13.81
2018-05-18T07:53:07.845Z,13.81
2018-05-18T07:54:07.857Z,13.81
2018-05-18T07:55:07.832Z,13.88
2018-05-18T07:56:07.858Z,13.88
2018-05-18T07:57:07.846Z,13.88
2018-05-18T07:58:07.861Z,14
2018-05-18T07:59:07.866Z,13.88
2018-05-18T08:00:07.872Z,13.88
2018-05-18T08:01:07.858Z,13.88
2018-05-18T08:02:07.865Z,13.94
2018-05-18T08:03:07.847Z,13.94
2018-05-18T08:04:07.852Z,14
2018-05-18T08:05:07.865Z,14
2018-05-18T08:06:07.850Z,14.06
2018-05-18T08:07:07.833Z,14.13
2018-05-18T08:08:07.867Z,14.13
2018-05-18T08:09:07.931Z,14.19
2018-05-18T08:10:07.849Z,14.19
2018-05-18T08:11:07.845Z,14.19
2018-05-18T08:12:07.847Z,14.19
2018-05-18T08:13:07.851Z,14.19
2018-05-18T08:14:07.921Z,14.13
2018-05-18T08:15:08.334Z,14.13
2018-05-18T08:16:07.878Z,14.19
2018-05-18T08:17:07.854Z,14.19
2018-05-18T08:18:07.844Z,14.19
2018-05-18T08:19:07.869Z,14.25
2018-05-18T08:20:07.930Z,14.25
2018-05-18T08:21:07.851Z,14.25
2018-05-18T08:22:07.861Z,14.31
2018-05-18T08:23:07.867Z,14.31
2018-05-18T08:24:07.873Z,14.38
2018-05-18T08:25:07.898Z,14.38
2018-05-18T08:26:07.836Z,14.38
2018-05-18T08:27:08.475Z,14.44
2018-05-18T08:28:07.871Z,14.44
2018-05-18T08:29:08.002Z,14.44
2018-05-18T08:30:07.865Z,14.5
2018-05-18T08:31:08.035Z,14.44
2018-05-18T08:32:08.079Z,14.5
2018-05-18T08:33:07.894Z,14.63
2018-05-18T08:34:07.897Z,14.56
2018-05-18T08:35:07.892Z,14.69
2018-05-18T08:36:07.886Z,14.69
2018-05-18T08:37:07.872Z,14.63
2018-05-18T08:38:07.951Z,14.69
2018-05-18T08:39:08.327Z,14.69
2018-05-18T08:40:07.944Z,14.69
2018-05-18T08:41:07.856Z,14.75
2018-05-18T08:42:07.890Z,14.75
2018-05-18T08:43:07.844Z,14.81
2018-05-18T08:44:07.872Z,14.75
2018-05-18T08:45:08.274Z,14.75
2018-05-18T08:46:07.941Z,14.75
2018-05-18T08:47:07.924Z,14.75
2018-05-18T08:48:07.878Z,14.75
2018-05-18T08:49:08.050Z,14.87
2018-05-18T08:50:07.865Z,14.87
2018-05-18T08:51:07.871Z,14.87
2018-05-18T08:52:08.107Z,14.87
2018-05-18T08:53:07.879Z,14.94
2018-05-18T08:54:08.034Z,14.81
2018-05-18T08:55:07.988Z,14.87
2018-05-18T08:56:07.924Z,14.87
2018-05-18T08:57:08.702Z,14.87
2018-05-18T08:58:07.891Z,14.94
2018-05-18T08:59:07.860Z,14.87
2018-05-18T09:00:07.903Z,14.94
2018-05-18T09:01:07.874Z,14.94
2018-05-18T09:02:07.901Z,14.94
2018-05-18T09:03:07.884Z,14.94
2018-05-18T09:04:07.885Z,15
2018-05-18T09:05:07.945Z,15.06
2018-05-18T09:06:07.871Z,15.13
2018-05-18T09:07:07.877Z,15.13
2018-05-18T09:08:07.879Z,15.19
2018-05-18T09:09:07.940Z,15.19
2018-05-18T09:10:07.868Z,15.25
2018-05-18T09:11:07.935Z,15.25
2018-05-18T09:12:07.868Z,15.31
2018-05-18T09:13:07.867Z,15.44
2018-05-18T09:14:07.873Z,15.38
2018-05-18T09:15:07.897Z,15.44
2018-05-18T09:16:07.869Z,15.5
2018-05-18T09:17:07.871Z,15.5
2018-05-18T09:18:07.871Z,15.5
2018-05-18T09:19:07.901Z,15.44
2018-05-18T09:20:07.896Z,15.44
2018-05-18T09:21:07.937Z,15.5
2018-05-18T09:22:07.920Z,15.38
2018-05-18T09:23:07.933Z,15.44
2018-05-18T09:24:08.010Z,15.44
2018-05-18T09:25:07.916Z,15.5
2018-05-18T09:26:07.872Z,15.56
2018-05-18T09:27:07.905Z,15.5
2018-05-18T09:28:07.887Z,15.56
2018-05-18T09:29:07.865Z,15.56
2018-05-18T09:30:07.905Z,15.56
2018-05-18T09:31:07.900Z,15.56
2018-05-18T09:32:07.872Z,15.56
2018-05-18T09:33:07.893Z,15.5
2018-05-18T09:34:08.445Z,15.5
2018-05-18T09:35:07.902Z,15.5
2018-05-18T09:36:07.928Z,15.5
2018-05-18T09:37:07.905Z,15.56
2018-05-18T09:38:07.914Z,15.56
2018-05-18T09:39:08.064Z,15.5
2018-05-18T09:40:07.927Z,15.56
2018-05-18T09:41:07.909Z,15.75
2018-05-18T09:42:07.918Z,15.81
2018-05-18T09:43:07.934Z,15.94
2018-05-18T09:44:07.992Z,15.88
2018-05-18T09:45:08.609Z,15.94
2018-05-18T09:46:07.977Z,15.88
2018-05-18T09:47:07.920Z,15.88
2018-05-18T09:48:08.804Z,16
2018-05-18T09:49:08.541Z,16
2018-05-18T09:50:08.589Z,16.06
2018-05-18T09:51:08.565Z,16.06
2018-05-18T09:52:08.704Z,16
2018-05-18T09:53:08.326Z,16
2018-05-18T09:54:09.778Z,16
2018-05-18T09:55:11.264Z,16.12
2018-05-18T09:56:08.654Z,16.12
2018-05-18T09:57:07.919Z,16.12
2018-05-18T09:58:08.067Z,16.12
2018-05-18T09:59:08.111Z,16.25
2018-05-18T10:00:07.947Z,16.25
2018-05-18T10:01:07.922Z,16.31
2018-05-18T10:02:07.910Z,16.37
2018-05-18T10:03:07.920Z,16.31
2018-05-18T10:04:07.891Z,16.31
2018-05-18T10:05:07.939Z,16.31
2018-05-18T10:06:07.903Z,16.25
2018-05-18T10:07:07.925Z,16.19
2018-05-18T10:08:07.916Z,16.31
2018-05-18T10:09:08.107Z,16.37
2018-05-18T10:10:08.078Z,16.31
2018-05-18T10:11:07.906Z,16.37
2018-05-18T10:12:08.158Z,16.5
2018-05-18T10:13:07.958Z,16.44
2018-05-18T10:14:07.933Z,16.31
2018-05-18T10:15:08.067Z,16.37
2018-05-18T10:16:07.903Z,16.44
2018-05-18T10:17:07.906Z,16.62
2018-05-18T10:18:07.919Z,16.62
2018-05-18T10:19:07.933Z,16.56
2018-05-18T10:20:07.920Z,16.62
2018-05-18T10:21:07.940Z,16.75
2018-05-18T10:22:07.951Z,16.81
2018-05-18T10:23:07.931Z,16.87
2018-05-18T10:24:07.959Z,16.87
2018-05-18T10:25:07.911Z,16.87
2018-05-18T10:26:07.946Z,16.94
2018-05-18T10:27:07.991Z,16.94
2018-05-18T10:28:07.937Z,17
2018-05-18T10:29:07.934Z,17
2018-05-18T10:30:07.910Z,16.94
2018-05-18T10:31:07.898Z,16.94
2018-05-18T10:32:07.907Z,16.94
2018-05-18T10:33:07.913Z,17
2018-05-18T10:34:07.900Z,17
2018-05-18T10:35:07.913Z,17.06
2018-05-18T10:36:07.911Z,17.12
2018-05-18T10:37:07.963Z,17.19
2018-05-18T10:38:08.199Z,17.06
2018-05-18T10:39:07.910Z,17.06
2018-05-18T10:40:07.962Z,17
2018-05-18T10:41:07.955Z,17
2018-05-18T10:42:07.936Z,17.06
2018-05-18T10:43:07.968Z,17.06
2018-05-18T10:44:07.995Z,17.19
2018-05-18T10:45:07.944Z,17.12
2018-05-18T10:46:07.942Z,17.19
2018-05-18T10:47:08.578Z,17.12
2018-05-18T10:48:07.938Z,17.19
2018-05-18T10:49:08.708Z,17.19
2018-05-18T10:50:07.964Z,17.19
2018-05-18T10:51:07.959Z,17.19
2018-05-18T10:52:07.953Z,17.19
2018-05-18T10:53:08.915Z,17.25
2018-05-18T10:54:08.024Z,17.31
2018-05-18T10:55:08.053Z,17.31
2018-05-18T10:56:07.970Z,17.31
2018-05-18T10:57:08.214Z,17.37
2018-05-18T10:58:07.976Z,17.44
2018-05-18T10:59:08.670Z,17.31
2018-05-18T11:00:08.674Z,17.31
2018-05-18T11:01:08.952Z,17.19
2018-05-18T11:02:08.604Z,17.25
2018-05-18T11:03:09.114Z,17.25
2018-05-18T11:04:08.853Z,17.25
2018-05-18T11:05:08.993Z,17.25
2018-05-18T11:06:08.784Z,17.31
2018-05-18T11:07:08.532Z,17.25
2018-05-18T11:08:07.995Z,17.31
2018-05-18T11:09:08.026Z,17.37
2018-05-18T11:10:07.934Z,17.5
2018-05-18T11:11:07.941Z,17.44
2018-05-18T11:12:07.963Z,17.5
2018-05-18T11:13:07.937Z,17.56
2018-05-18T11:14:09.330Z,17.56
2018-05-18T11:15:08.016Z,17.62
2018-05-18T11:16:07.946Z,17.69
2018-05-18T11:17:07.947Z,17.62
2018-05-18T11:18:07.955Z,17.81
2018-05-18T11:19:07.987Z,17.87
2018-05-18T11:20:08.611Z,17.87
2018-05-18T11:21:07.987Z,17.87
2018-05-18T11:22:07.928Z,17.94
2018-05-18T11:23:07.965Z,17.87
2018-05-18T11:24:08.115Z,17.87
2018-05-18T11:25:08.080Z,18
2018-05-18T11:26:07.985Z,18.06
2018-05-18T11:27:07.963Z,18
2018-05-18T11:28:07.991Z,18.06
2018-05-18T11:29:07.973Z,18.06
2018-05-18T11:30:07.943Z,18
2018-05-18T11:31:07.988Z,17.94
2018-05-18T11:32:07.971Z,17.87
2018-05-18T11:33:08.480Z,17.87
2018-05-18T11:34:07.946Z,17.94
2018-05-18T11:35:07.944Z,17.81
2018-05-18T11:36:07.930Z,17.94
2018-05-18T11:37:07.939Z,17.94
2018-05-18T11:38:07.954Z,17.81
2018-05-18T11:39:08.575Z,17.81
2018-05-18T11:40:07.953Z,17.87
2018-05-18T11:41:08.047Z,18.06
2018-05-18T11:42:07.995Z,18.06
2018-05-18T11:43:07.971Z,18.19
2018-05-18T11:44:07.966Z,18.19
2018-05-18T11:45:08.018Z,18.12
2018-05-18T11:46:07.993Z,18.12
2018-05-18T11:47:07.950Z,18.12
2018-05-18T11:48:08.712Z,18.12
2018-05-18T11:49:08.044Z,18.25
2018-05-18T11:50:08.202Z,18.19
2018-05-18T11:51:07.991Z,18.19
2018-05-18T11:52:07.950Z,18.25
2018-05-18T11:53:07.997Z,18.12
2018-05-18T11:54:07.978Z,18.25
2018-05-18T11:55:07.971Z,18.31
2018-05-18T11:56:08.008Z,18.37
2018-05-18T11:57:08.350Z,18.5
2018-05-18T11:58:07.987Z,18.37
2018-05-18T11:59:07.970Z,18.37
2018-05-18T12:00:08.054Z,18.31
2018-05-18T12:01:08.053Z,18.37
2018-05-18T12:02:07.996Z,18.5
2018-05-18T12:03:08.056Z,18.56
2018-05-18T12:04:08.063Z,18.62
2018-05-18T12:05:08.023Z,18.75
2018-05-18T12:06:07.959Z,18.75
2018-05-18T12:07:08.070Z,18.69
2018-05-18T12:08:08.255Z,18.75
2018-05-18T12:09:07.962Z,18.87
2018-05-18T12:10:08.052Z,18.81
2018-05-18T12:11:08.059Z,18.75
2018-05-18T12:12:07.979Z,18.62
2018-05-18T12:13:08.016Z,18.62
2018-05-18T12:14:08.488Z,18.56
2018-05-18T12:15:08.045Z,18.62
2018-05-18T12:16:08.092Z,18.37
2018-05-18T12:17:08.017Z,18.37
2018-05-18T12:18:08.232Z,18.44
2018-05-18T12:19:08.033Z,18.56
2018-05-18T12:20:08.257Z,18.62
2018-05-18T12:21:08.164Z,18.75
2018-05-18T12:22:08.235Z,18.62
2018-05-18T12:23:07.967Z,18.75
2018-05-18T12:24:07.968Z,18.75
2018-05-18T12:25:08.186Z,18.56
2018-05-18T12:26:08.622Z,18.5
2018-05-18T12:27:08.272Z,18.56
2018-05-18T12:28:08.019Z,18.62
2018-05-18T12:29:08.050Z,18.62
2018-05-18T12:30:08.002Z,18.69
2018-05-18T12:31:08.034Z,18.69
2018-05-18T12:32:07.989Z,18.75
2018-05-18T12:33:08.030Z,18.87
2018-05-18T12:34:08.089Z,18.87
2018-05-18T12:35:08.008Z,18.81
2018-05-18T12:36:08.035Z,18.81
2018-05-18T12:37:07.989Z,18.81
2018-05-18T12:38:08.928Z,18.87
2018-05-18T12:39:07.993Z,18.87
2018-05-18T12:40:07.973Z,18.81
2018-05-18T12:41:07.974Z,18.94
2018-05-18T12:42:08.070Z,19
2018-05-18T12:43:07.970Z,19.06
2018-05-18T12:44:08.009Z,19.12
2018-05-18T12:45:08.084Z,19.12
2018-05-18T12:46:08.549Z,19.12
2018-05-18T12:47:08.103Z,19
2018-05-18T12:48:08.009Z,19.06
2018-05-18T12:49:08.101Z,19
2018-05-18T12:50:08.128Z,19.12
2018-05-18T12:51:08.353Z,19.06
2018-05-18T12:52:08.011Z,19.06
2018-05-18T12:53:08.169Z,19.12
2018-05-18T12:54:09.495Z,19.25
2018-05-18T12:55:08.062Z,19.31
2018-05-18T12:56:08.138Z,19.37
2018-05-18T12:57:08.156Z,19.37
2018-05-18T12:58:08.231Z,19.37